Time;durP1;ratioP1;P1;durP2;ratioP2;P2;SDS_P1;SDS_P2;PMS_P1;PMS_P2;Temp;Humidity;BMP_temperature;BMP_pressure;BME280_temperature;BME280_humidity;BME280_pressure;Samples;Min_cycle;Max_cycle;Signal;HPM_P1;HPM_P2
2024/01/16 07:08:51;;;;;;;1999.90;999.90;;;-2.60;99.90;;;;;;4938835;29;20765;-84
2024/01/16 07:11:17;;;;;;;1999.90;999.90;;;-2.50;99.90;;;;;;4954824;28;20040;-83
2024/01/16 07:13:43;;;;;;;1999.90;999.90;;;-2.50;99.90;;;;;;4955267;28;20036;-84
2024/01/16 07:16:14;;;;;;;1999.90;999.90;;;-2.40;99.90;;;;;;4955036;28;20435;-83
2024/01/16 07:18:40;;;;;;;1999.90;999.90;;;-2.40;99.90;;;;;;4954901;28;20063;-83
2024/01/16 07:21:16;;;;;;;1999.90;999.90;;;-2.30;99.90;;;;;;4954081;28;20119;-83
2024/01/16 07:23:42;;;;;;;1999.90;999.90;;;-2.30;99.90;;;;;;4940379;28;20081;-85
2024/01/16 07:26:07;;;;;;;1999.90;999.90;;;-2.30;99.90;;;;;;4954896;28;20076;-83
2024/01/16 07:28:33;;;;;;;1999.90;999.90;;;-2.20;99.90;;;;;;4955189;28;20406;-84
2024/01/16 07:30:58;;;;;;;1999.90;999.90;;;-2.20;99.90;;;;;;4955006;28;20036;-83
2024/01/16 07:33:24;;;;;;;1999.90;999.90;;;-2.20;99.90;;;;;;4954227;28;20499;-84
2024/01/16 07:35:49;;;;;;;1999.90;999.90;;;-2.20;99.90;;;;;;4954322;28;20040;-84
2024/01/16 07:38:15;;;;;;;1999.90;999.90;;;-2.10;99.90;;;;;;4940193;28;20036;-84
2024/01/16 07:40:40;;;;;;;1999.90;999.90;;;-2.10;99.90;;;;;;4954822;28;20040;-82
2024/01/16 07:43:06;;;;;;;1999.90;999.90;;;-2.10;99.90;;;;;;4955696;28;20040;-83
2024/01/16 07:45:32;;;;;;;1999.90;999.90;;;-2.10;99.90;;;;;;4941822;28;20046;-83
2024/01/16 07:47:58;;;;;;;1999.90;999.90;;;-2.10;99.90;;;;;;4940579;28;20052;-82
2024/01/16 07:50:23;;;;;;;1999.90;999.90;;;-2.10;99.90;;;;;;4954471;28;20080;-85
2024/01/16 07:52:49;;;;;;;1999.90;999.90;;;-2.10;99.90;;;;;;4953721;28;20079;-84
2024/01/16 07:55:15;;;;;;;1999.90;999.90;;;-2.10;99.90;;;;;;4954330;28;20550;-83
2024/01/16 07:57:40;;;;;;;1999.90;999.90;;;-2.10;99.90;;;;;;4954098;28;20040;-83
2024/01/16 08:00:11;;;;;;;1999.90;999.90;;;-2.00;99.90;;;;;;4954479;28;20032;-84
2024/01/16 08:02:37;;;;;;;1999.90;999.90;;;-2.00;99.90;;;;;;4954596;28;20036;-83
2024/01/16 08:05:03;;;;;;;1999.90;999.90;;;-2.00;99.90;;;;;;4959271;28;20040;-83
2024/01/16 08:07:43;;;;;;;1999.90;999.90;;;-1.90;99.90;;;;;;4957850;28;20036;-83
2024/01/16 08:10:38;;;;;;;1999.90;999.90;;;-1.90;99.90;;;;;;4959240;28;20028;-82
2024/01/16 08:13:30;;;;;;;1999.90;999.90;;;-1.80;99.90;;;;;;4937627;28;20052;-83
2024/01/16 08:20:23;;;;;;;1999.90;999.90;;;-1.60;99.90;;;;;;4878853;29;20038;-83
2024/01/16 08:22:50;;;;;;;1999.90;999.90;;;-1.60;99.90;;;;;;4829042;29;20346;-83
2024/01/16 08:25:15;;;;;;;1999.90;999.90;;;-1.50;99.90;;;;;;4883109;29;20219;-84
2024/01/16 08:27:43;;;;;;;1999.90;999.90;;;-1.40;99.90;;;;;;4925017;28;20158;-84
2024/01/16 08:30:09;;;;;;;1999.90;999.90;;;-1.40;99.90;;;;;;4939140;28;20028;-83
2024/01/16 08:32:35;;;;;;;1999.90;999.90;;;-1.40;99.90;;;;;;4936953;28;20630;-83
2024/01/16 08:35:01;;;;;;;1999.90;999.90;;;-1.40;99.90;;;;;;4937270;28;20126;-83
2024/01/16 08:37:26;;;;;;;1999.90;999.90;;;-1.40;99.90;;;;;;4937619;28;20127;-84
2024/01/16 08:40:13;;;;;;;1999.90;999.90;;;-1.30;99.90;;;;;;4950002;28;20040;-83
2024/01/16 08:42:39;;;;;;;1999.90;999.90;;;-1.30;99.90;;;;;;4949038;28;20044;-84
2024/01/16 08:45:05;;;;;;;1999.90;999.90;;;-1.10;99.90;;;;;;4973480;28;20036;-84
2024/01/16 08:47:31;;;;;;;1999.90;999.90;;;-0.90;99.90;;;;;;4973950;28;20095;-83
2024/01/16 08:49:57;;;;;;;1999.90;999.90;;;-0.80;99.90;;;;;;4959498;28;20031;-84
2024/01/16 08:52:22;;;;;;;1999.90;999.90;;;-0.60;99.90;;;;;;4974603;28;20039;-81
2024/01/16 08:54:48;;;;;;;1999.90;999.90;;;-0.40;99.90;;;;;;4958758;28;20064;-81
2024/01/16 08:57:14;;;;;;;1999.90;999.90;;;-0.20;99.90;;;;;;4958759;28;20518;-81
2024/01/16 08:59:42;;;;;;;1999.90;999.90;;;-0.20;99.90;;;;;;4959264;28;20487;-82
2024/01/16 09:02:08;;;;;;;1999.90;999.90;;;-0.10;99.90;;;;;;4974342;28;20035;-81
2024/01/16 09:04:34;;;;;;;1999.90;999.90;;;0.00;99.90;;;;;;4959935;28;20042;-82
2024/01/16 09:07:00;;;;;;;1999.90;999.90;;;0.00;99.90;;;;;;4975571;28;20044;-82
2024/01/16 09:09:25;;;;;;;1999.90;999.90;;;0.10;99.90;;;;;;4974172;28;20032;-82
2024/01/16 09:11:51;;;;;;;1999.90;999.90;;;0.20;99.90;;;;;;4974674;28;20486;-81
2024/01/16 09:14:17;;;;;;;1999.90;999.90;;;0.30;99.90;;;;;;4961317;28;20059;-82
2024/01/16 09:16:42;;;;;;;1999.90;999.90;;;0.30;99.90;;;;;;4974758;28;20375;-82
2024/01/16 09:19:09;;;;;;;1999.90;999.90;;;0.50;99.90;;;;;;4973985;28;20067;-81
2024/01/16 09:21:35;;;;;;;1999.90;999.90;;;0.60;99.90;;;;;;4974561;28;20036;-84
2024/01/16 09:24:00;;;;;;;1999.90;999.90;;;0.80;99.90;;;;;;4975415;28;20031;-82
2024/01/16 09:26:26;;;;;;;1999.90;999.90;;;0.90;99.90;;;;;;4976020;28;20062;-83
2024/01/16 09:28:51;;;;;;;1999.90;999.90;;;1.10;99.90;;;;;;4975993;28;20036;-85
2024/01/16 09:31:17;;;;;;;1999.90;999.90;;;1.20;99.90;;;;;;4974180;28;20036;-83
2024/01/16 09:33:43;;;;;;;1999.90;999.90;;;1.40;99.90;;;;;;4975513;28;20062;-83
2024/01/16 09:36:09;;;;;;;1999.90;999.90;;;1.40;99.90;;;;;;4975944;28;20062;-82
2024/01/16 09:38:34;;;;;;;1999.90;999.90;;;1.40;99.90;;;;;;4974211;28;20103;-82
2024/01/16 09:41:02;;;;;;;1999.90;999.90;;;1.50;99.90;;;;;;4973338;28;20482;-82
2024/01/16 09:43:29;;;;;;;1999.90;999.90;;;1.50;99.90;;;;;;4971920;28;20035;-82
2024/01/16 09:45:56;;;;;;;1999.90;999.90;;;1.50;99.90;;;;;;4971825;28;20032;-84
2024/01/16 09:48:22;;;;;;;1999.90;999.90;;;1.50;99.90;;;;;;4957606;28;20477;-83
2024/01/16 09:50:47;;;;;;;1999.90;999.90;;;1.50;99.90;;;;;;4972963;28;20027;-83
2024/01/16 09:53:13;;;;;;;1999.90;999.90;;;1.60;99.90;;;;;;4956492;28;20398;-82
2024/01/16 09:55:39;;;;;;;1999.90;999.90;;;1.60;99.90;;;;;;4959106;28;20035;-82
2024/01/16 09:58:08;;;;;;;1999.90;999.90;;;1.70;99.90;;;;;;4972671;28;20095;-82
2024/01/16 10:00:34;;;;;;;1999.90;999.90;;;1.90;99.90;;;;;;4957255;28;20944;-82
2024/01/16 10:03:04;;;;;;;1999.90;999.90;;;2.00;99.90;;;;;;4973614;28;20127;-82
2024/01/16 10:05:30;;;;;;;1999.90;999.90;;;2.10;99.90;;;;;;4974461;28;20439;-82
2024/01/16 10:07:58;;;;;;;1999.90;999.90;;;2.30;99.90;;;;;;4974611;28;20044;-82
2024/01/16 10:10:28;;;;;;;1999.90;999.90;;;2.30;99.90;;;;;;4973536;28;20114;-82
2024/01/16 10:12:54;;;;;;;1999.90;999.90;;;2.40;99.90;;;;;;4957322;28;20067;-83
2024/01/16 10:15:21;;;;;;;1999.90;999.90;;;2.40;99.90;;;;;;4957524;28;20036;-83
2024/01/16 10:17:47;;;;;;;1999.90;999.90;;;2.50;99.90;;;;;;4974919;28;20046;-82
2024/01/16 11:15:31;;;;;;;1999.90;999.90;;;3.20;99.90;;;;;;4957710;28;20087;-87
2024/01/16 11:17:59;;;;;;;1999.90;999.90;;;3.20;99.90;;;;;;4957808;28;20875;-84
2024/01/16 11:20:25;;;;;;;1999.90;999.90;;;3.20;99.90;;;;;;4961929;28;20056;-86
2024/01/16 11:22:54;;;;;;;1999.90;999.90;;;3.30;99.90;;;;;;4963715;28;20042;-86
2024/01/16 11:25:20;;;;;;;1999.90;999.90;;;3.20;99.90;;;;;;4960509;28;20036;-85
2024/01/16 11:27:51;;;;;;;1999.90;999.90;;;3.20;99.90;;;;;;4962044;28;20036;-84
2024/01/16 11:30:33;;;;;;;1999.90;999.90;;;3.10;99.90;;;;;;4962952;28;20608;-85
2024/01/16 11:32:59;;;;;;;1999.90;999.90;;;3.30;99.90;;;;;;4960240;28;20043;-85
2024/01/16 11:35:38;;;;;;;1999.90;999.90;;;3.50;99.90;;;;;;4962663;28;20036;-85
2024/01/16 11:38:29;;;;;;;1999.90;999.90;;;3.70;99.90;;;;;;4957606;28;20074;-86
2024/01/16 11:40:58;;;;;;;1999.90;999.90;;;3.70;99.90;;;;;;4950479;28;20537;-88
2024/01/16 11:43:33;;;;;;;1999.90;999.90;;;3.70;99.90;;;;;;4957025;28;20477;-87
2024/01/16 11:46:00;;;;;;;1999.90;999.90;;;3.80;99.90;;;;;;4957308;28;20032;-85
2024/01/16 11:51:46;;;;;;;1999.90;999.90;;;3.90;99.90;;;;;;4934941;28;20032;-88
2024/01/16 11:54:46;;;;;;;1999.90;999.90;;;4.10;99.90;;;;;;4935944;29;20044;-89
2024/01/16 12:00:52;;;;;;;1999.90;999.90;;;4.10;99.90;;;;;;4898042;29;20041;-88
2024/01/16 12:03:21;;;;;;;1999.90;999.90;;;4.30;99.90;;;;;;4942941;28;20051;-87
2024/01/16 12:05:59;;;;;;;1999.90;999.90;;;4.10;99.90;;;;;;4957429;28;20042;-88
2024/01/16 12:08:25;;;;;;;1999.90;999.90;;;4.20;99.90;;;;;;4963651;28;20059;-87
2024/01/16 12:10:51;;;;;;;1999.90;999.90;;;4.10;99.90;;;;;;4965093;28;20090;-87
2024/01/16 12:13:19;;;;;;;1999.90;999.90;;;4.00;99.90;;;;;;4960653;28;20122;-88
2024/01/16 12:15:46;;;;;;;1999.90;999.90;;;4.10;99.90;;;;;;4959969;28;20035;-88
2024/01/16 12:18:18;;;;;;;1999.90;999.90;;;4.10;99.90;;;;;;4954319;28;20043;-88
2024/01/16 12:21:34;;;;;;;1999.90;999.90;;;3.80;99.90;;;;;;4957625;28;20043;-88
2024/01/16 12:23:59;;;;;;;1999.90;999.90;;;3.60;99.90;;;;;;4957106;28;20038;-88
2024/01/16 12:26:25;;;;;;;1999.90;999.90;;;3.30;99.90;;;;;;4956632;28;20032;-88
2024/01/16 12:28:52;;;;;;;1999.90;999.90;;;3.30;99.90;;;;;;4955905;28;20043;-87
2024/01/16 12:31:18;;;;;;;1999.90;999.90;;;3.40;99.90;;;;;;4960986;28;20050;-88
2024/01/16 12:33:44;;;;;;;1999.90;999.90;;;3.30;99.90;;;;;;4975197;28;20035;-88
2024/01/16 12:36:10;;;;;;;1999.90;999.90;;;3.30;99.90;;;;;;4958186;28;20043;-87
2024/01/16 12:38:36;;;;;;;1999.90;999.90;;;3.20;99.90;;;;;;4960700;28;20049;-87
2024/01/16 12:41:06;;;;;;;1999.90;999.90;;;3.20;99.90;;;;;;4979920;23;20111;-88
2024/01/16 12:43:33;;;;;;;1999.90;999.90;;;3.00;99.90;;;;;;4956561;28;20808;-88
2024/01/16 12:45:58;;;;;;;1999.90;999.90;;;2.80;99.90;;;;;;4956892;28;20039;-88
2024/01/16 12:48:27;;;;;;;1999.90;999.90;;;2.80;99.90;;;;;;4955891;28;20039;-85
2024/01/16 12:51:03;;;;;;;1999.90;999.90;;;2.70;99.90;;;;;;4955910;28;20035;-86
2024/01/16 12:53:29;;;;;;;1999.90;999.90;;;2.50;99.90;;;;;;4955785;28;20040;-87
2024/01/16 12:55:59;;;;;;;1999.90;999.90;;;2.20;99.90;;;;;;4955913;28;20032;-86
2024/01/16 12:58:31;;;;;;;1999.90;999.90;;;2.10;99.90;;;;;;4956713;28;20039;-87
2024/01/16 13:00:57;;;;;;;1999.90;999.90;;;2.00;99.90;;;;;;4956079;28;20086;-87
2024/01/16 13:03:28;;;;;;;1999.90;999.90;;;2.10;99.90;;;;;;4954242;28;20091;-87
2024/01/16 13:06:00;;;;;;;1999.90;999.90;;;2.20;99.90;;;;;;4955623;28;20064;-87
2024/01/16 13:08:26;;;;;;;1999.90;999.90;;;2.30;99.90;;;;;;4953548;28;20074;-88
2024/01/16 13:11:06;;;;;;;1999.90;999.90;;;2.30;99.90;;;;;;4955115;28;20043;-87
2024/01/16 13:13:32;;;;;;;1999.90;999.90;;;2.10;99.90;;;;;;4955738;28;20068;-88
2024/01/16 13:16:00;;;;;;;1999.90;999.90;;;2.10;99.90;;;;;;4955657;28;20048;-89
2024/01/16 13:18:28;;;;;;;1999.90;999.90;;;2.10;99.90;;;;;;4955761;28;20040;-88
2024/01/16 13:20:56;;;;;;;1999.90;999.90;;;2.20;99.90;;;;;;4956966;28;20039;-88
2024/01/16 13:23:26;;;;;;;1999.90;999.90;;;2.20;99.90;;;;;;4955890;28;20043;-88
2024/01/16 13:25:53;;;;;;;1999.90;999.90;;;2.30;99.90;;;;;;4956860;28;20103;-89
2024/01/16 13:28:20;;;;;;;1999.90;999.90;;;2.40;99.90;;;;;;4960212;28;20043;-89
2024/01/16 13:30:47;;;;;;;1999.90;999.90;;;2.50;99.90;;;;;;4974882;28;20039;-89
2024/01/16 13:33:13;;;;;;;1999.90;999.90;;;2.40;99.90;;;;;;4974453;28;20039;-87
2024/01/16 13:35:40;;;;;;;1999.90;999.90;;;2.40;99.90;;;;;;4974966;28;20031;-88
2024/01/16 13:38:07;;;;;;;1999.90;999.90;;;2.50;99.90;;;;;;4976979;28;20516;-88
2024/01/16 13:40:35;;;;;;;1999.90;999.90;;;2.80;99.90;;;;;;4967047;28;20031;-88
2024/01/16 13:43:00;;;;;;;1999.90;999.90;;;2.70;99.90;;;;;;4955176;28;20510;-89
2024/01/16 13:45:29;;;;;;;1999.90;999.90;;;2.70;99.90;;;;;;4955716;28;20047;-89
2024/01/16 13:47:56;;;;;;;1999.90;999.90;;;2.50;99.90;;;;;;4959149;28;20032;-89
2024/01/16 13:50:22;;;;;;;1999.90;999.90;;;2.30;99.90;;;;;;4975735;28;20055;-89
2024/01/16 13:52:48;;;;;;;1999.90;999.90;;;2.30;99.90;;;;;;4970256;28;20106;-89
2024/01/16 13:55:13;;;;;;;1999.90;999.90;;;2.30;99.90;;;;;;4956213;28;20461;-89
2024/01/16 13:57:39;;;;;;;1999.90;999.90;;;2.50;99.90;;;;;;4958821;28;20036;-89
2024/01/16 14:00:08;;;;;;;1999.90;999.90;;;2.60;99.90;;;;;;4959677;28;20087;-89
2024/01/16 14:02:38;;;;;;;1999.90;999.90;;;2.80;99.90;;;;;;4958511;28;20031;-88
2024/01/16 14:05:05;;;;;;;1999.90;999.90;;;2.70;99.90;;;;;;4959155;28;20036;-89
2024/01/16 14:08:27;;;;;;;1999.90;999.90;;;2.80;99.90;;;;;;4965857;28;20047;-89
2024/01/16 14:10:53;;;;;;;1999.90;999.90;;;2.90;99.90;;;;;;4947608;29;20037;-87
2024/01/16 14:13:18;;;;;;;1999.90;999.90;;;2.80;99.90;;;;;;4931918;29;20040;-87
2024/01/16 14:15:44;;;;;;;1999.90;999.90;;;2.70;99.90;;;;;;4950136;28;20036;-88
2024/01/16 14:18:09;;;;;;;1999.90;999.90;;;2.60;99.90;;;;;;4966433;28;20034;-88
2024/01/16 14:20:35;;;;;;;1999.90;999.90;;;2.50;99.90;;;;;;4967900;28;20039;-88
2024/01/16 14:23:01;;;;;;;1999.90;999.90;;;2.50;99.90;;;;;;4967647;28;20068;-88
2024/01/16 14:25:27;;;;;;;1999.90;999.90;;;2.80;99.90;;;;;;4967046;28;20040;-88
2024/01/16 14:28:03;;;;;;;1999.90;999.90;;;2.80;99.90;;;;;;4965195;28;20066;-88
2024/01/16 14:30:29;;;;;;;1999.90;999.90;;;2.60;99.90;;;;;;4967754;28;20048;-88
2024/01/16 14:32:56;;;;;;;1999.90;999.90;;;2.70;99.90;;;;;;4967503;28;20036;-87
2024/01/16 14:35:23;;;;;;;1999.90;999.90;;;2.70;99.90;;;;;;4965917;28;20036;-88
2024/01/16 14:37:50;;;;;;;1999.90;999.90;;;2.70;99.90;;;;;;4963546;28;20032;-88
2024/01/16 14:40:25;;;;;;;1999.90;999.90;;;2.60;99.90;;;;;;4963391;28;20413;-87
2024/01/16 14:42:53;;;;;;;1999.90;999.90;;;2.70;99.90;;;;;;4963759;28;20063;-87
2024/01/16 14:45:22;;;;;;;1999.90;999.90;;;2.80;99.90;;;;;;4963181;28;20035;-88
2024/01/16 14:47:49;;;;;;;1999.90;999.90;;;3.00;99.90;;;;;;4963252;28;20040;-88
2024/01/16 14:50:17;;;;;;;1999.90;999.90;;;3.00;99.90;;;;;;4962096;28;20071;-88
2024/01/16 14:52:46;;;;;;;1999.90;999.90;;;3.00;99.90;;;;;;4962779;28;20072;-88
2024/01/16 14:55:12;;;;;;;1999.90;999.90;;;2.90;99.90;;;;;;4962735;28;20099;-88
2024/01/16 14:57:52;;;;;;;1999.90;999.90;;;3.00;99.90;;;;;;4962982;28;20549;-88
2024/01/16 15:00:23;;;;;;;1999.90;999.90;;;3.00;99.90;;;;;;4962842;28;20048;-88
2024/01/16 15:02:53;;;;;;;1999.90;999.90;;;2.90;99.90;;;;;;4963042;28;20480;-88
2024/01/16 15:05:19;;;;;;;1999.90;999.90;;;2.90;99.90;;;;;;4962484;28;20578;-88
2024/01/16 15:07:46;;;;;;;1999.90;999.90;;;2.70;99.90;;;;;;4962385;28;20036;-88
2024/01/16 15:10:12;;;;;;;1999.90;999.90;;;2.60;99.90;;;;;;4963640;28;20099;-88
2024/01/16 15:12:41;;;;;;;1999.90;999.90;;;2.40;99.90;;;;;;4962563;28;20884;-88
2024/01/16 15:15:08;;;;;;;1999.90;999.90;;;2.20;99.90;;;;;;4962523;28;20043;-88
2024/01/16 15:17:34;;;;;;;1999.90;999.90;;;2.00;99.90;;;;;;4962246;28;20525;-88
2024/01/16 15:19:59;;;;;;;1999.90;999.90;;;1.70;99.90;;;;;;4962330;28;20036;-88
2024/01/16 15:22:25;;;;;;;1999.90;999.90;;;1.60;99.90;;;;;;4962137;28;20039;-88
2024/01/16 15:24:51;;;;;;;1999.90;999.90;;;1.30;99.90;;;;;;4962917;28;20075;-88
2024/01/16 15:27:16;;;;;;;1999.90;999.90;;;1.20;99.90;;;;;;4963296;28;20043;-88
2024/01/16 15:29:42;;;;;;;1999.90;999.90;;;1.10;99.90;;;;;;4962523;28;20039;-88
2024/01/16 15:32:10;;;;;;;1999.90;999.90;;;0.90;99.90;;;;;;4961263;28;20040;-88
2024/01/16 15:34:37;;;;;;;1999.90;999.90;;;0.70;99.90;;;;;;4960427;28;20027;-88
2024/01/16 15:37:03;;;;;;;1999.90;999.90;;;0.50;99.90;;;;;;4961658;28;20043;-88
2024/01/16 15:39:29;;;;;;;1999.90;999.90;;;0.30;99.90;;;;;;4960514;28;20059;-88
2024/01/16 15:41:54;;;;;;;1999.90;999.90;;;0.00;99.90;;;;;;4960053;28;20091;-88
2024/01/16 15:44:20;;;;;;;1999.90;999.90;;;-0.30;99.90;;;;;;4960349;28;20036;-88
2024/01/16 15:46:59;;;;;;;1999.90;999.90;;;-0.60;99.90;;;;;;4961323;28;20043;-87
2024/01/16 15:49:26;;;;;;;1999.90;999.90;;;-0.90;99.90;;;;;;4960160;28;20119;-88
2024/01/16 15:51:52;;;;;;;1999.90;999.90;;;-1.10;99.90;;;;;;4959624;28;20032;-88
2024/01/16 15:54:18;;;;;;;1999.90;999.90;;;-1.30;99.90;;;;;;4963822;28;20078;-88
2024/01/16 15:56:44;;;;;;;1999.90;999.90;;;-1.50;99.90;;;;;;4969882;28;20069;-87
2024/01/16 15:59:11;;;;;;;1999.90;999.90;;;-1.70;99.90;;;;;;4982622;28;20035;-87
2024/01/16 16:01:40;;;;;;;1999.90;999.90;;;-1.80;99.90;;;;;;4963762;28;20050;-87
2024/01/16 16:04:06;;;;;;;1999.90;999.90;;;-2.00;99.90;;;;;;4962225;28;20090;-88
2024/01/16 16:06:39;;;;;;;1999.90;999.90;;;-2.00;99.90;;;;;;4961901;28;20055;-88
2024/01/16 16:09:08;;;;;;;1999.90;999.90;;;-2.20;99.90;;;;;;4961365;28;20498;-88
2024/01/16 16:11:41;;;;;;;1999.90;999.90;;;-2.30;99.90;;;;;;4960632;28;20524;-88
2024/01/16 16:14:10;;;;;;;1999.90;999.90;;;-2.30;99.90;;;;;;4961673;28;20078;-87
2024/01/16 16:16:36;;;;;;;1999.90;999.90;;;-2.50;99.90;;;;;;4961671;28;20383;-87
2024/01/16 16:19:02;;;;;;;1999.90;999.90;;;-2.60;99.90;;;;;;4962524;28;20118;-87
2024/01/16 16:21:29;;;;;;;1999.90;999.90;;;-2.70;99.90;;;;;;4961016;28;20031;-88
2024/01/16 16:23:55;;;;;;;1999.90;999.90;;;-2.70;99.90;;;;;;4961456;28;20027;-87
2024/01/16 16:26:31;;;;;;;1999.90;999.90;;;-2.90;99.90;;;;;;4961527;28;20035;-87
2024/01/16 16:29:10;;;;;;;1999.90;999.90;;;-2.90;99.90;;;;;;4960097;28;20047;-88
2024/01/16 16:31:37;;;;;;;1999.90;999.90;;;-3.00;99.90;;;;;;4959654;28;20042;-87
2024/01/16 16:34:11;;;;;;;1999.90;999.90;;;-3.10;99.90;;;;;;4959208;28;20067;-87
2024/01/16 16:36:38;;;;;;;1999.90;999.90;;;-3.10;99.90;;;;;;4959270;28;20038;-86
2024/01/16 16:39:05;;;;;;;1999.90;999.90;;;-3.20;99.90;;;;;;4957899;28;20047;-87
2024/01/16 16:41:33;;;;;;;1999.90;999.90;;;-3.20;99.90;;;;;;4956525;28;20098;-88
2024/01/16 16:43:59;;;;;;;1999.90;999.90;;;-3.20;99.90;;;;;;4957465;28;20055;-87
2024/01/16 16:46:26;;;;;;;1999.90;999.90;;;-3.30;99.90;;;;;;4957715;28;20051;-86
2024/01/16 16:48:52;;;;;;;1999.90;999.90;;;-3.30;99.90;;;;;;4957193;28;20040;-87
2024/01/16 16:51:19;;;;;;;1999.90;999.90;;;-3.40;99.90;;;;;;4956600;28;20035;-87
2024/01/16 16:53:45;;;;;;;1999.90;999.90;;;-3.40;99.90;;;;;;4957301;28;20131;-87
2024/01/16 16:56:16;;;;;;;1999.90;999.90;;;-3.40;99.90;;;;;;4957546;28;20084;-87
2024/01/16 16:58:48;;;;;;;1999.90;999.90;;;-3.50;99.90;;;;;;4957178;28;20044;-87
2024/01/16 17:01:15;;;;;;;1999.90;999.90;;;-3.50;99.90;;;;;;4956672;28;20160;-87
2024/01/16 17:03:42;;;;;;;1999.90;999.90;;;-3.50;99.90;;;;;;4956828;28;20039;-87
2024/01/16 17:06:11;;;;;;;1999.90;999.90;;;-3.50;99.90;;;;;;4956900;28;20853;-87
2024/01/16 17:08:37;;;;;;;1999.90;999.90;;;-3.60;99.90;;;;;;4956608;28;20488;-87
2024/01/16 17:11:04;;;;;;;1999.90;999.90;;;-3.70;99.90;;;;;;4956564;28;20464;-86
2024/01/16 17:13:31;;;;;;;1999.90;999.90;;;-3.70;99.90;;;;;;4956678;28;20115;-87
2024/01/16 17:15:58;;;;;;;1999.90;999.90;;;-3.80;99.90;;;;;;4956627;28;20056;-86
2024/01/16 17:18:27;;;;;;;1999.90;999.90;;;-3.80;99.90;;;;;;4956475;28;20039;-86
2024/01/16 17:20:53;;;;;;;1999.90;999.90;;;-3.80;99.90;;;;;;4956031;28;20070;-86
2024/01/16 17:23:19;;;;;;;1999.90;999.90;;;-3.80;99.90;;;;;;4956229;28;20078;-87
2024/01/16 17:25:45;;;;;;;1999.90;999.90;;;-3.80;99.90;;;;;;4956398;28;20044;-87
2024/01/16 17:28:11;;;;;;;1999.90;999.90;;;-3.90;99.90;;;;;;4957557;28;20094;-87
2024/01/16 17:30:37;;;;;;;1999.90;999.90;;;-3.90;99.90;;;;;;4955856;28;20042;-86
2024/01/16 17:33:03;;;;;;;1999.90;999.90;;;-4.00;99.90;;;;;;4956038;28;20055;-87
2024/01/16 17:35:29;;;;;;;1999.90;999.90;;;-3.90;99.90;;;;;;4958922;28;20051;-87
2024/01/16 17:37:54;;;;;;;1999.90;999.90;;;-4.00;99.90;;;;;;4957387;28;20498;-86
2024/01/16 17:40:20;;;;;;;1999.90;999.90;;;-4.00;99.90;;;;;;4955833;28;20044;-87
2024/01/16 17:42:45;;;;;;;1999.90;999.90;;;-4.00;99.90;;;;;;4953075;28;20105;-87
2024/01/16 17:45:11;;;;;;;1999.90;999.90;;;-4.10;99.90;;;;;;4958055;28;20117;-86
2024/01/16 17:47:37;;;;;;;1999.90;999.90;;;-4.20;99.90;;;;;;4955184;28;20047;-85
2024/01/16 17:50:08;;;;;;;1999.90;999.90;;;-4.20;99.90;;;;;;4946751;28;20036;-88
2024/01/16 17:52:38;;;;;;;1999.90;999.90;;;-4.20;99.90;;;;;;4959021;28;20048;-86
2024/01/16 17:55:08;;;;;;;1999.90;999.90;;;-4.30;99.90;;;;;;4961409;28;20059;-85
2024/01/16 17:57:35;;;;;;;1999.90;999.90;;;-4.30;99.90;;;;;;4956833;28;20056;-84
2024/01/16 18:00:01;;;;;;;1999.90;999.90;;;-4.30;99.90;;;;;;4961204;28;20043;-83
2024/01/16 18:02:27;;;;;;;1999.90;999.90;;;-4.40;99.90;;;;;;4958625;28;20047;-85
2024/01/16 18:04:52;;;;;;;1999.90;999.90;;;-4.40;99.90;;;;;;4959917;28;20402;-83
2024/01/16 18:07:18;;;;;;;1999.90;999.90;;;-4.40;99.90;;;;;;4961824;28;20051;-83
2024/01/16 18:09:44;;;;;;;1999.90;999.90;;;-4.50;99.90;;;;;;4960809;28;20047;-83
2024/01/16 18:12:14;;;;;;;1999.90;999.90;;;-4.50;99.90;;;;;;4973014;28;20100;-85
2024/01/16 18:14:41;;;;;;;1999.90;999.90;;;-4.60;99.90;;;;;;4967640;28;20039;-86
2024/01/16 18:17:09;;;;;;;1999.90;999.90;;;-4.60;99.90;;;;;;4949134;28;20052;-86
2024/01/16 18:19:35;;;;;;;1999.90;999.90;;;-4.60;99.90;;;;;;4957560;28;20051;-85
2024/01/16 18:22:02;;;;;;;1999.90;999.90;;;-4.60;99.90;;;;;;4955740;28;20488;-86
2024/01/16 18:24:28;;;;;;;1999.90;999.90;;;-4.60;99.90;;;;;;4958473;28;20028;-85
2024/01/16 18:26:53;;;;;;;1999.90;999.90;;;-4.60;99.90;;;;;;4942637;28;20503;-85
2024/01/16 18:29:22;;;;;;;1999.90;999.90;;;-4.60;99.90;;;;;;4952076;28;20027;-87
2024/01/16 18:31:48;;;;;;;1999.90;999.90;;;-4.60;99.90;;;;;;4957151;28;20042;-86
2024/01/16 18:34:19;;;;;;;1999.90;999.90;;;-4.60;99.90;;;;;;4956350;28;20467;-86
2024/01/16 18:36:49;;;;;;;1999.90;999.90;;;-4.70;99.90;;;;;;4954823;28;20040;-86
2024/01/16 18:39:15;;;;;;;1999.90;999.90;;;-4.80;99.90;;;;;;4954341;28;20032;-87
2024/01/16 18:41:48;;;;;;;1999.90;999.90;;;-4.80;99.90;;;;;;4955413;28;20040;-89
2024/01/16 18:44:18;;;;;;;1999.90;999.90;;;-4.90;99.90;;;;;;4956587;28;20930;-87
2024/01/16 18:46:44;;;;;;;1999.90;999.90;;;-4.90;99.90;;;;;;4956177;28;20047;-87
2024/01/16 18:49:12;;;;;;;1999.90;999.90;;;-5.10;99.90;;;;;;4954855;28;20504;-85
2024/01/16 18:51:38;;;;;;;1999.90;999.90;;;-5.00;99.90;;;;;;4959287;28;20040;-84
2024/01/16 18:54:04;;;;;;;1999.90;999.90;;;-5.10;99.90;;;;;;4959222;28;20044;-86
2024/01/16 18:56:30;;;;;;;1999.90;999.90;;;-5.10;99.90;;;;;;4958590;28;20035;-84
2024/01/16 18:58:55;;;;;;;1999.90;999.90;;;-5.10;99.90;;;;;;4961133;28;20513;-85
2024/01/16 19:01:21;;;;;;;1999.90;999.90;;;-5.10;99.90;;;;;;4959380;28;20764;-84
2024/01/16 19:03:48;;;;;;;1999.90;999.90;;;-5.10;99.90;;;;;;4959776;28;20035;-84
2024/01/16 19:06:14;;;;;;;1999.90;999.90;;;-5.20;99.90;;;;;;4958786;28;20457;-84
2024/01/16 19:08:41;;;;;;;1999.90;999.90;;;-5.10;99.90;;;;;;4959112;28;20043;-84
2024/01/16 19:11:08;;;;;;;1999.90;999.90;;;-5.30;99.90;;;;;;4956592;28;20059;-85
2024/01/16 19:13:36;;;;;;;1999.90;999.90;;;-5.30;99.90;;;;;;4960624;28;20036;-84
2024/01/16 19:16:02;;;;;;;1999.90;999.90;;;-5.30;99.90;;;;;;4961077;28;20043;-83
2024/01/16 19:18:28;;;;;;;1999.90;999.90;;;-5.30;99.90;;;;;;4960041;28;20066;-84
2024/01/16 19:20:53;;;;;;;1999.90;999.90;;;-5.40;99.90;;;;;;4960346;28;20044;-84
2024/01/16 19:23:20;;;;;;;1999.90;999.90;;;-5.40;99.90;;;;;;4959603;28;20028;-84
2024/01/16 19:25:47;;;;;;;1999.90;999.90;;;-5.40;99.90;;;;;;4959829;28;20164;-84
2024/01/16 19:28:13;;;;;;;1999.90;999.90;;;-5.40;99.90;;;;;;4946714;28;20099;-83
2024/01/16 19:30:38;;;;;;;1999.90;999.90;;;-5.40;99.90;;;;;;4958631;28;20123;-84
2024/01/16 19:33:05;;;;;;;1999.90;999.90;;;-5.50;99.90;;;;;;4960092;28;20167;-82
2024/01/16 19:35:31;;;;;;;1999.90;999.90;;;-5.50;99.90;;;;;;4962497;28;20119;-83
2024/01/16 19:37:57;;;;;;;1999.90;999.90;;;-5.50;99.90;;;;;;4961313;28;20114;-83
2024/01/16 19:40:24;;;;;;;1999.90;999.90;;;-5.60;99.90;;;;;;4961900;28;20144;-83
2024/01/16 19:42:50;;;;;;;1999.90;999.90;;;-5.60;99.90;;;;;;4961748;28;20035;-83
2024/01/16 19:45:18;;;;;;;1999.90;999.90;;;-5.60;99.90;;;;;;4961440;28;20038;-83
2024/01/16 19:47:43;;;;;;;1999.90;999.90;;;-5.70;99.90;;;;;;4962218;28;20051;-83
2024/01/16 19:50:18;;;;;;;1999.90;999.90;;;-5.70;99.90;;;;;;4965073;28;20108;-85
2024/01/16 19:52:50;;;;;;;1999.90;999.90;;;-5.70;99.90;;;;;;4964667;28;20055;-84
2024/01/16 19:55:19;;;;;;;1999.90;999.90;;;-5.70;99.90;;;;;;4965702;28;20031;-83
2024/01/16 19:57:45;;;;;;;1999.90;999.90;;;-5.80;99.90;;;;;;4965553;28;20044;-84
2024/01/16 20:00:12;;;;;;;1999.90;999.90;;;-5.80;99.90;;;;;;4967433;28;20028;-83
2024/01/16 20:02:38;;;;;;;1999.90;999.90;;;-5.80;99.90;;;;;;4964405;28;20046;-84
2024/01/16 20:05:04;;;;;;;1999.90;999.90;;;-5.80;99.90;;;;;;4965550;28;20406;-84
2024/01/16 20:07:30;;;;;;;1999.90;999.90;;;-5.80;99.90;;;;;;4967907;28;20532;-84
2024/01/16 20:09:56;;;;;;;1999.90;999.90;;;-5.70;99.90;;;;;;4960421;28;20040;-85
2024/01/16 20:12:21;;;;;;;1999.90;999.90;;;-5.70;99.90;;;;;;4964065;28;20089;-83
2024/01/16 20:14:47;;;;;;;1999.90;999.90;;;-5.80;99.90;;;;;;4967144;28;20067;-84
2024/01/16 20:17:15;;;;;;;1999.90;999.90;;;-5.80;99.90;;;;;;4966987;28;20028;-84
2024/01/16 20:19:40;;;;;;;1999.90;999.90;;;-5.90;99.90;;;;;;4966087;28;20040;-84
2024/01/16 20:22:07;;;;;;;1999.90;999.90;;;-6.00;99.90;;;;;;4964623;28;20039;-84